createdAt,value
2022-09-20T00:00:56.407Z,3.1
2022-09-20T00:02:56.137Z,3.5
2022-09-20T00:04:56.053Z,5.1
2022-09-20T00:06:55.733Z,2.7
2022-09-20T00:08:55.521Z,3.5
2022-09-20T00:14:58.513Z,4.7
2022-09-20T00:18:58.121Z,3.7
2022-09-20T00:20:57.999Z,3.1
2022-09-20T00:22:57.851Z,3.6
2022-09-20T00:24:57.718Z,2.9
2022-09-20T00:26:57.550Z,3.1
2022-09-20T00:31:00.596Z,4.4
2022-09-20T00:33:00.374Z,3.4
2022-09-20T00:34:02.062Z,3.4
2022-09-20T00:36:01.819Z,3.4
2022-09-20T00:38:01.606Z,2.6
2022-09-20T00:40:01.497Z,3
2022-09-20T00:42:04.700Z,3.7
2022-09-20T00:46:04.266Z,2.8
2022-09-20T00:50:03.951Z,3.2
2022-09-20T00:56:06.746Z,2.9
2022-09-20T00:58:06.601Z,3.1
2022-09-20T01:00:06.985Z,2.6
2022-09-20T01:02:06.403Z,2.5
2022-09-20T01:04:06.333Z,2.4
2022-09-20T01:06:06.051Z,2.5
2022-09-20T01:08:05.838Z,2.6
2022-09-20T01:10:09.212Z,3.3
2022-09-20T01:12:09.048Z,2.9
2022-09-20T01:14:08.899Z,2.7
2022-09-20T01:16:08.784Z,2.9
2022-09-20T01:18:08.538Z,2.5
2022-09-20T01:20:08.311Z,2.8
2022-09-20T01:22:08.172Z,1.9
2022-09-20T01:24:11.467Z,2.6
2022-09-20T01:26:11.352Z,3.3
2022-09-20T01:28:11.211Z,2.9
2022-09-20T01:29:12.757Z,2.7
2022-09-20T01:31:12.627Z,2.4
2022-09-20T01:37:15.710Z,2.9
2022-09-20T01:41:15.466Z,2.8
2022-09-20T01:43:15.331Z,2.9
2022-09-20T01:45:15.340Z,2.5
2022-09-20T01:47:15.064Z,2.6
2022-09-20T01:49:14.919Z,2.8
2022-09-20T01:51:18.202Z,2.7
2022-09-20T01:53:17.971Z,3.6
2022-09-20T01:55:17.767Z,2.7
2022-09-20T01:57:17.641Z,3.3
2022-09-20T01:59:23.995Z,3.3
2022-09-20T02:01:17.432Z,2.4
2022-09-20T02:03:17.247Z,3.3
2022-09-20T02:09:20.377Z,3.7
2022-09-20T02:11:20.240Z,2.7
2022-09-20T02:15:19.896Z,4.7
2022-09-20T02:17:19.791Z,3.5
2022-09-20T02:21:22.924Z,3.3
2022-09-20T02:23:22.795Z,3.9
2022-09-20T02:24:24.471Z,3.5
2022-09-20T02:26:24.278Z,3.9
2022-09-20T02:28:24.134Z,3.9
2022-09-20T02:30:23.941Z,3.7
2022-09-20T02:32:27.292Z,4.5
2022-09-20T02:34:27.166Z,3.8
2022-09-20T02:36:27.026Z,3.9
2022-09-20T02:38:26.869Z,3.1
2022-09-20T02:40:26.802Z,3.5
2022-09-20T02:42:26.474Z,4.6
2022-09-20T02:44:26.259Z,4.1
2022-09-20T02:46:29.423Z,4.4
2022-09-20T02:48:29.145Z,3.1
2022-09-20T02:50:29.052Z,3.3
2022-09-20T02:52:28.771Z,3.7
2022-09-20T02:54:28.559Z,4
2022-09-20T02:56:28.427Z,4
2022-09-20T02:58:28.274Z,3.8
2022-09-20T03:00:31.636Z,3.7
2022-09-20T03:02:31.487Z,3.8
2022-09-20T03:04:31.146Z,4
2022-09-20T03:06:30.975Z,3.7
2022-09-20T03:08:30.876Z,3.1
2022-09-20T03:10:30.700Z,3.6
2022-09-20T03:12:30.456Z,3.1
2022-09-20T03:14:33.714Z,3.8
2022-09-20T03:16:33.600Z,3.5
2022-09-20T03:18:33.408Z,3.1
2022-09-20T03:20:55.339Z,2.8
2022-09-20T03:22:55.190Z,3.3
2022-09-20T03:24:55.060Z,3.9
2022-09-20T03:26:58.315Z,3.5
2022-09-20T03:28:58.159Z,3.3
2022-09-20T03:30:57.988Z,3.7
2022-09-20T03:32:57.736Z,3.1
2022-09-20T03:34:57.507Z,3.9
2022-09-20T03:36:57.308Z,3.1
2022-09-20T03:38:57.072Z,3.2
2022-09-20T03:41:00.349Z,4.6
2022-09-20T03:43:00.201Z,4.8
2022-09-20T03:44:59.973Z,4.7
2022-09-20T03:46:59.814Z,4.1
2022-09-20T03:48:59.676Z,3.8
2022-09-20T03:50:59.545Z,6.1
2022-09-20T03:52:59.280Z,4.8
2022-09-20T03:55:02.466Z,5.1
2022-09-20T03:57:02.287Z,4.6
2022-09-20T03:59:02.138Z,4.9
2022-09-20T04:01:02.007Z,5.4
2022-09-20T04:03:01.667Z,5.6
2022-09-20T04:05:01.470Z,4.3
2022-09-20T04:07:01.286Z,4.3
2022-09-20T04:09:04.555Z,4.6
2022-09-20T04:11:04.410Z,4.8
2022-09-20T04:13:04.123Z,5.5
2022-09-20T04:14:10.597Z,5.4
2022-09-20T04:22:08.261Z,4.9
2022-09-20T04:24:08.095Z,4.2
2022-09-20T04:26:07.876Z,5.2
2022-09-20T04:30:07.575Z,4.7
2022-09-20T04:32:07.545Z,4.4
2022-09-20T04:34:07.174Z,5.8
2022-09-20T04:36:10.420Z,5.3
2022-09-20T04:40:10.179Z,4.7
2022-09-20T04:42:09.836Z,6.2
2022-09-20T04:46:11.041Z,5.3
2022-09-20T04:48:10.649Z,4.3
2022-09-20T04:50:13.801Z,4.4
2022-09-20T04:52:13.575Z,3.9
2022-09-20T04:56:13.140Z,4.4
2022-09-20T04:58:12.908Z,3.8
2022-09-20T05:00:12.655Z,4
2022-09-20T05:02:12.460Z,3.8
2022-09-20T05:04:15.632Z,3.9
2022-09-20T05:06:15.376Z,4
2022-09-20T05:08:15.242Z,3.3
2022-09-20T05:09:16.804Z,3.4
2022-09-20T05:11:16.616Z,3.5
2022-09-20T05:13:16.341Z,2.9
2022-09-20T05:15:16.108Z,3.2
2022-09-20T05:17:19.252Z,3.1
2022-09-20T05:19:19.014Z,2.9
2022-09-20T05:21:18.715Z,2.8
2022-09-20T05:23:18.473Z,3.3
2022-09-20T05:25:18.257Z,2.7
2022-09-20T05:27:17.984Z,4
2022-09-20T05:29:17.737Z,2.5
2022-09-20T05:33:20.707Z,2.6
2022-09-20T05:35:20.446Z,3.1
2022-09-20T05:37:20.222Z,3
2022-09-20T05:39:19.976Z,3.5
2022-09-20T05:41:19.730Z,2.9
2022-09-20T05:43:19.459Z,2.7
2022-09-20T05:45:22.612Z,2.6
2022-09-20T05:47:22.368Z,2.9
2022-09-20T05:49:22.110Z,2.9
2022-09-20T05:51:21.891Z,3.1
2022-09-20T05:53:21.698Z,3.4
2022-09-20T05:55:21.452Z,2.5
2022-09-20T05:59:24.345Z,3
2022-09-20T06:01:24.154Z,2.7
2022-09-20T06:03:23.814Z,3.1
2022-09-20T06:04:25.399Z,3.2
2022-09-20T06:06:28.028Z,3.4
2022-09-20T06:08:24.871Z,3.6
2022-09-20T06:10:24.627Z,2.6
2022-09-20T06:12:27.871Z,2.9
2022-09-20T06:14:27.626Z,3.1
2022-09-20T06:16:27.396Z,3.5
2022-09-20T06:18:27.090Z,3.3
2022-09-20T06:20:26.846Z,3.2
2022-09-20T06:26:29.428Z,4.1
2022-09-20T06:28:29.156Z,2.5
2022-09-20T06:30:28.975Z,3.1
2022-09-20T06:36:28.096Z,2.6
2022-09-20T06:38:27.837Z,2.5
2022-09-20T06:40:30.999Z,2.3
2022-09-20T06:42:30.693Z,2.8
2022-09-20T06:44:30.398Z,2.3
2022-09-20T06:46:30.116Z,2.1
2022-09-20T06:48:29.858Z,2.9
2022-09-20T06:50:29.581Z,2.5
2022-09-20T06:52:29.248Z,2.1
2022-09-20T06:54:32.414Z,1.5
2022-09-20T06:56:32.141Z,2
2022-09-20T06:58:31.867Z,1.7
2022-09-20T07:00:53.428Z,2.4
2022-09-20T07:02:53.107Z,1.8
2022-09-20T07:04:52.834Z,1.8
2022-09-20T07:06:55.961Z,1.4
2022-09-20T07:08:56.287Z,2.2
2022-09-20T07:10:56.000Z,1.9
2022-09-20T07:12:55.710Z,1.8
2022-09-20T07:14:55.394Z,1.2
2022-09-20T07:16:55.134Z,1.5
2022-09-20T07:18:54.777Z,1.7
2022-09-20T07:20:57.889Z,2.6
2022-09-20T07:22:57.561Z,1.8
2022-09-20T07:26:56.980Z,1.6
2022-09-20T07:28:56.671Z,1.8
2022-09-20T07:30:56.377Z,1.6
2022-09-20T07:32:56.042Z,1.6
2022-09-20T07:34:59.150Z,1.7
2022-09-20T07:40:58.179Z,1
2022-09-20T07:42:57.874Z,1.1
2022-09-20T07:44:57.536Z,1.1
2022-09-20T07:46:57.238Z,1
2022-09-20T07:49:00.312Z,1.5
2022-09-20T07:50:59.997Z,1.3
2022-09-20T07:52:59.680Z,1.4
2022-09-20T08:00:00.167Z,1.2
2022-09-20T08:02:03.286Z,1.7
2022-09-20T08:04:02.903Z,1.6
2022-09-20T08:06:02.540Z,0.9
2022-09-20T08:08:02.222Z,1.3
2022-09-20T08:10:01.874Z,1
2022-09-20T08:14:05.239Z,1.2
2022-09-20T08:14:06.038Z,1.3
2022-09-20T08:16:04.188Z,0.9
2022-09-20T08:18:03.824Z,1.2
2022-09-20T08:20:03.494Z,1.1
2022-09-20T08:22:03.098Z,1.1
2022-09-20T08:24:02.719Z,1.1
2022-09-20T08:26:02.372Z,1.2
2022-09-20T08:28:02.008Z,1
2022-09-20T08:30:05.047Z,1.6
2022-09-20T08:32:04.701Z,1.1
2022-09-20T08:34:04.258Z,1.1
2022-09-20T08:42:02.703Z,1.3
2022-09-20T08:44:05.742Z,1
2022-09-20T08:48:04.853Z,1.2
2022-09-20T08:51:06.074Z,1.1
2022-09-20T08:53:05.521Z,1.2
2022-09-20T08:55:07.469Z,1
2022-09-20T08:57:08.100Z,1.4
2022-09-20T08:59:07.684Z,0.9
2022-09-20T09:01:07.322Z,1.1
2022-09-20T09:03:06.828Z,1.3
2022-09-20T09:05:06.420Z,1.6
2022-09-20T09:09:05.582Z,0.7
2022-09-20T09:11:08.559Z,1.7
2022-09-20T09:13:08.103Z,1.5
2022-09-20T09:19:06.920Z,1.1
2022-09-20T09:23:05.970Z,1.7
2022-09-20T09:27:08.512Z,0.9
2022-09-20T09:29:08.093Z,0.9
2022-09-20T09:31:07.640Z,1.3
2022-09-20T09:33:07.163Z,1.2
2022-09-20T09:35:06.710Z,1.3
2022-09-20T09:37:06.234Z,1.2
2022-09-20T09:39:09.208Z,1.5
2022-09-20T09:41:08.745Z,0.7
2022-09-20T09:44:09.700Z,1.3
2022-09-20T09:56:14.035Z,1.2
2022-09-20T09:58:09.762Z,0.9
2022-09-20T10:04:08.190Z,1.1
2022-09-20T10:06:10.873Z,1.1
2022-09-20T10:08:10.324Z,1.4
2022-09-20T10:10:09.715Z,1.1
2022-09-20T10:14:08.420Z,1.5
2022-09-20T10:16:07.750Z,0.6
2022-09-20T10:18:07.881Z,1.2
2022-09-20T10:20:10.474Z,1.3
2022-09-20T10:22:09.703Z,1.3
2022-09-20T10:24:08.932Z,1.1
2022-09-20T10:26:08.281Z,0.9
2022-09-20T10:28:07.324Z,1.2
2022-09-20T10:30:06.519Z,1.3
2022-09-20T10:32:07.232Z,1.1
2022-09-20T10:34:09.723Z,1.1
2022-09-20T10:36:08.888Z,0.6
2022-09-20T10:38:08.023Z,1.2
2022-09-20T10:40:29.009Z,1.5
2022-09-20T10:44:27.242Z,1.2
2022-09-20T10:46:32.291Z,0.9
2022-09-20T10:48:28.821Z,1.7
2022-09-20T10:50:27.944Z,0.9
2022-09-20T10:52:27.047Z,1.5
2022-09-20T10:54:26.105Z,1.3
2022-09-20T10:56:25.199Z,1.4
2022-09-20T10:58:24.269Z,0.9
2022-09-20T11:00:26.722Z,1
2022-09-20T11:02:25.811Z,0.9
2022-09-20T11:04:24.820Z,0.9
2022-09-20T11:06:23.881Z,1.5
2022-09-20T11:08:23.000Z,1.1
2022-09-20T11:10:22.023Z,1.1
2022-09-20T11:14:23.558Z,1.2
2022-09-20T11:16:22.674Z,1.3
2022-09-20T11:18:21.725Z,0.6
2022-09-20T11:20:20.819Z,0.8
2022-09-20T11:22:19.892Z,1
2022-09-20T11:24:18.979Z,1.3
2022-09-20T11:26:18.049Z,1.1
2022-09-20T11:28:20.509Z,0.9
2022-09-20T11:30:19.566Z,0.9
2022-09-20T11:32:18.673Z,0.8
2022-09-20T11:37:18.091Z,1.6
2022-09-20T11:39:17.223Z,0.8
2022-09-20T11:41:19.741Z,0.9
2022-09-20T11:43:18.899Z,1.2
2022-09-20T11:45:18.087Z,1
2022-09-20T11:47:36.576Z,1
2022-09-20T11:49:16.509Z,2.1
2022-09-20T11:51:15.743Z,1.2
2022-09-20T11:53:15.084Z,1.2
2022-09-20T11:55:17.666Z,0.9
2022-09-20T11:57:17.104Z,1
2022-09-20T11:59:16.534Z,1
2022-09-20T12:01:15.840Z,1.4
2022-09-20T12:03:15.317Z,0.9
2022-09-20T12:05:14.663Z,0.9
2022-09-20T12:07:17.645Z,1.3
2022-09-20T12:09:16.972Z,1.8
2022-09-20T12:11:16.423Z,1.3
2022-09-20T12:13:15.880Z,1.1
2022-09-20T12:15:15.340Z,1.5
2022-09-20T12:17:14.802Z,1.3
2022-09-20T12:19:14.307Z,0.9
2022-09-20T12:21:15.879Z,0.6
2022-09-20T12:23:16.688Z,1.1
2022-09-20T12:25:16.159Z,1.7
2022-09-20T12:27:15.667Z,1.1
2022-09-20T12:28:17.113Z,1.1
2022-09-20T12:30:16.633Z,1
2022-09-20T12:32:16.134Z,1.7
2022-09-20T12:40:17.645Z,1.3
2022-09-20T12:42:17.118Z,0.9
2022-09-20T12:46:16.192Z,1.8
2022-09-20T12:48:15.631Z,1.1
2022-09-20T12:50:18.587Z,0.9
2022-09-20T12:52:18.127Z,1.3
2022-09-20T12:56:17.044Z,1.7
2022-09-20T12:58:16.759Z,1.8
2022-09-20T13:00:16.050Z,0.9
2022-09-20T13:02:15.602Z,1.1
2022-09-20T13:06:17.992Z,1.7
2022-09-20T13:08:17.529Z,1.3
2022-09-20T13:10:17.027Z,1.3
2022-09-20T13:12:16.561Z,0.9
2022-09-20T13:14:16.061Z,1
2022-09-20T13:16:15.649Z,1.2
2022-09-20T13:18:18.538Z,0.9
2022-09-20T13:20:18.078Z,1.4
2022-09-20T13:23:19.060Z,1.1
2022-09-20T13:25:18.646Z,1.2
2022-09-20T13:27:19.563Z,0.6
2022-09-20T13:29:17.691Z,1.2
2022-09-20T13:31:20.739Z,0.7
2022-09-20T13:33:20.177Z,1.2
2022-09-20T13:35:19.714Z,1.2
2022-09-20T13:37:19.240Z,1.1
2022-09-20T13:39:18.773Z,1
2022-09-20T13:41:18.317Z,0.7
2022-09-20T13:43:24.024Z,2
2022-09-20T13:47:20.312Z,1
2022-09-20T13:49:19.804Z,0.7
2022-09-20T13:51:19.308Z,1.1
2022-09-20T13:53:39.455Z,1
2022-09-20T13:55:18.252Z,2.1
2022-09-20T13:57:17.774Z,0.5
2022-09-20T14:03:19.269Z,1.4
2022-09-20T14:05:18.722Z,0.5
2022-09-20T14:07:18.078Z,1.4
2022-09-20T14:09:17.419Z,0.7
2022-09-20T14:11:16.721Z,0.8
2022-09-20T14:13:19.501Z,0.8
2022-09-20T14:15:18.808Z,1
2022-09-20T14:17:18.135Z,0.6
2022-09-20T14:21:32.359Z,1.1
2022-09-20T14:23:31.735Z,0.8
2022-09-20T14:25:34.505Z,0.9
2022-09-20T14:29:33.031Z,1.2
2022-09-20T14:31:32.329Z,1.2
2022-09-20T14:33:31.567Z,0.8
2022-09-20T14:35:30.846Z,1
2022-09-20T14:37:30.123Z,0.7
2022-09-20T14:39:32.757Z,2.1
2022-09-20T14:41:32.012Z,1
2022-09-20T14:43:31.274Z,1.9
2022-09-20T14:45:30.674Z,1.1
2022-09-20T14:47:29.831Z,0.9
2022-09-20T14:49:29.088Z,1
2022-09-20T14:51:28.373Z,0.5
2022-09-20T14:53:30.974Z,0.5
2022-09-20T14:55:33.789Z,1
2022-09-20T14:57:29.539Z,0.6
2022-09-20T14:59:28.804Z,1.4
2022-09-20T15:01:28.079Z,1.2
2022-09-20T15:03:27.497Z,0.6
2022-09-20T15:05:26.768Z,1.4
2022-09-20T15:07:29.507Z,0.7
2022-09-20T15:09:28.915Z,0.7
2022-09-20T15:11:28.296Z,1.2
2022-09-20T15:12:29.746Z,0.7
2022-09-20T15:16:28.416Z,1.1
2022-09-20T15:18:27.663Z,0.8
2022-09-20T15:20:30.439Z,0.5
2022-09-20T15:22:29.850Z,0.6
2022-09-20T15:24:29.180Z,1.1
2022-09-20T15:26:28.604Z,1.2
2022-09-20T15:28:28.032Z,0.9
2022-09-20T15:30:27.363Z,0.4
2022-09-20T15:32:26.796Z,0.7
2022-09-20T15:34:29.591Z,1
2022-09-20T15:36:29.024Z,1
2022-09-20T15:38:28.447Z,0.8
2022-09-20T15:40:27.877Z,0.7
2022-09-20T15:42:27.295Z,1
2022-09-20T15:44:26.713Z,0.9
2022-09-20T15:46:26.173Z,0.8
2022-09-20T15:48:29.020Z,0.7
2022-09-20T15:50:28.389Z,0.8
2022-09-20T15:52:27.725Z,1.1
2022-09-20T15:56:26.564Z,1
2022-09-20T15:58:26.005Z,1.1
2022-09-20T16:00:25.447Z,0.6
2022-09-20T16:02:28.376Z,1.3
2022-09-20T16:04:27.799Z,1
2022-09-20T16:06:27.245Z,1
2022-09-20T16:07:28.613Z,0.8
2022-09-20T16:09:28.079Z,0.8
2022-09-20T16:11:27.547Z,0.4
2022-09-20T16:13:27.004Z,0.8
2022-09-20T16:15:31.413Z,0.8
2022-09-20T16:17:31.104Z,0.5
2022-09-20T16:19:30.350Z,0.5
2022-09-20T16:21:29.824Z,0.7
2022-09-20T16:23:29.286Z,1.3
2022-09-20T16:25:28.780Z,0.7
2022-09-20T16:27:28.274Z,1.3
2022-09-20T16:29:31.208Z,1.5
2022-09-20T16:31:30.747Z,1.1
2022-09-20T16:33:30.228Z,0.7
2022-09-20T16:35:29.734Z,0.8
2022-09-20T16:37:29.255Z,0.7
2022-09-20T16:39:28.760Z,1.1
2022-09-20T16:41:28.315Z,0.8
2022-09-20T16:45:30.835Z,1.4
2022-09-20T16:47:30.361Z,0.8
2022-09-20T16:49:29.907Z,1.4
2022-09-20T16:51:29.435Z,1
2022-09-20T16:53:28.992Z,1.2
2022-09-20T16:55:28.593Z,0.8
2022-09-20T16:57:31.546Z,1.2
2022-09-20T16:59:31.116Z,1.2
2022-09-20T17:01:30.728Z,0.9
2022-09-20T17:02:32.206Z,0.9
2022-09-20T17:06:31.368Z,0.9
2022-09-20T17:08:30.982Z,0.6
2022-09-20T17:14:33.224Z,0.8
2022-09-20T17:18:32.404Z,0.9
2022-09-20T17:20:32.028Z,1.4
2022-09-20T17:22:31.641Z,1
2022-09-20T17:24:34.674Z,0.7
2022-09-20T17:26:34.327Z,1.2
2022-09-20T17:28:33.963Z,0.8
2022-09-20T17:30:33.563Z,1.1
2022-09-20T17:32:33.196Z,1
2022-09-20T17:34:32.853Z,1
2022-09-20T17:36:32.487Z,1
2022-09-20T17:38:35.595Z,1.2
2022-09-20T17:40:35.315Z,1.3
2022-09-20T17:42:34.914Z,2.1
2022-09-20T17:46:34.226Z,1.5
2022-09-20T17:48:33.868Z,1.6
2022-09-20T17:50:33.549Z,1.6
2022-09-20T17:52:36.634Z,1.9
2022-09-20T17:54:36.329Z,1.3
2022-09-20T17:56:36.019Z,1.8
2022-09-20T17:58:57.892Z,1.8
2022-09-20T18:00:57.578Z,1.8
2022-09-20T18:03:00.458Z,1.9
2022-09-20T18:05:00.365Z,1.9
2022-09-20T18:07:00.002Z,2.5
2022-09-20T18:08:59.705Z,2
2022-09-20T18:10:59.382Z,1.4
2022-09-20T18:12:59.090Z,2.2
2022-09-20T18:14:58.772Z,1.7
2022-09-20T18:16:58.439Z,2.2
2022-09-20T18:19:01.554Z,2
2022-09-20T18:21:01.206Z,2.1
2022-09-20T18:23:00.889Z,1.7
2022-09-20T18:25:00.581Z,1.9
2022-09-20T18:27:00.262Z,1.9
2022-09-20T18:28:59.973Z,3
2022-09-20T18:30:59.663Z,2.4
2022-09-20T18:33:02.720Z,2.2
2022-09-20T18:35:02.413Z,2.6
2022-09-20T18:37:02.154Z,2.6
2022-09-20T18:39:01.847Z,2.3
2022-09-20T18:41:01.528Z,3.3
2022-09-20T18:43:04.496Z,2.4
2022-09-20T18:45:00.923Z,2.7
2022-09-20T18:47:04.042Z,3.1
2022-09-20T18:49:03.746Z,3.3
2022-09-20T18:51:03.449Z,2
2022-09-20T18:52:04.992Z,3.4
2022-09-20T18:54:04.775Z,3.4
2022-09-20T18:56:04.595Z,2.5
2022-09-20T19:14:08.696Z,3.7
2022-09-20T19:16:08.405Z,3.6
2022-09-20T19:18:08.144Z,3.9
2022-09-20T19:20:07.864Z,3.4
2022-09-20T19:22:07.570Z,3.2
2022-09-20T19:24:07.397Z,3.1
2022-09-20T19:26:07.017Z,2.8
2022-09-20T19:28:10.152Z,2.2
2022-09-20T19:30:09.904Z,3.6
2022-09-20T19:32:09.651Z,3.3
2022-09-20T19:34:09.374Z,3.2
2022-09-20T19:36:09.252Z,3.2
2022-09-20T19:38:08.944Z,2.7
2022-09-20T19:40:08.766Z,2.5
2022-09-20T19:42:11.830Z,2.5
2022-09-20T19:44:11.565Z,1.9
2022-09-20T19:46:11.325Z,2.7
2022-09-20T19:47:12.886Z,1.5
2022-09-20T19:49:12.629Z,2
2022-09-20T19:51:12.349Z,1.8
2022-09-20T19:53:12.129Z,2
2022-09-20T19:55:15.260Z,1.9
2022-09-20T19:57:15.012Z,2
2022-09-20T19:59:14.784Z,2
2022-09-20T20:01:14.619Z,1.6
2022-09-20T20:03:14.583Z,2.2
2022-09-20T20:05:14.193Z,1.7
2022-09-20T20:07:13.948Z,1.6
2022-09-20T20:09:17.181Z,2.4
2022-09-20T20:11:16.964Z,1.6
2022-09-20T20:13:16.691Z,2.2
2022-09-20T20:15:16.511Z,2.5
2022-09-20T20:19:16.013Z,2
2022-09-20T20:21:15.764Z,1.8
2022-09-20T20:23:19.025Z,2.2
2022-09-20T20:25:18.775Z,2.1
2022-09-20T20:27:18.519Z,1.8
2022-09-20T20:29:18.274Z,1.8
2022-09-20T20:31:18.146Z,1.8
2022-09-20T20:39:20.468Z,2.8
2022-09-20T20:41:20.203Z,2.3
2022-09-20T20:42:21.810Z,2.1
2022-09-20T20:44:21.518Z,1.4
2022-09-20T20:46:21.323Z,2
2022-09-20T20:48:21.052Z,1.7
2022-09-20T20:50:24.281Z,2.1
2022-09-20T20:52:24.061Z,2.6
2022-09-20T20:56:23.691Z,2.4
2022-09-20T20:58:23.510Z,1.7
2022-09-20T21:00:23.297Z,1.8
2022-09-20T21:02:23.154Z,1.7
2022-09-20T21:06:26.030Z,2.1
2022-09-20T21:14:25.215Z,2.3
2022-09-20T21:18:28.300Z,2.5
2022-09-20T21:20:28.088Z,2.4
2022-09-20T21:22:27.964Z,3
2022-09-20T21:28:27.324Z,2.3
2022-09-20T21:30:27.169Z,2.4
2022-09-20T21:32:30.520Z,3.1
2022-09-20T21:34:30.302Z,1.9
2022-09-20T21:36:30.202Z,3.7
2022-09-20T21:38:52.340Z,2.7
2022-09-20T21:40:52.007Z,3.2
2022-09-20T21:42:51.798Z,3.5
2022-09-20T21:44:55.045Z,2.7
2022-09-20T21:46:54.835Z,3.2
2022-09-20T21:48:54.697Z,3.6
2022-09-20T21:50:54.559Z,3.1
2022-09-20T21:52:54.329Z,2.4
2022-09-20T21:54:54.183Z,3.1
2022-09-20T21:58:58.957Z,3
2022-09-20T22:00:58.753Z,3.2
2022-09-20T22:02:58.481Z,2.7
2022-09-20T22:04:58.348Z,3.4
2022-09-20T22:06:58.107Z,2.7
2022-09-20T22:08:57.980Z,2.7
2022-09-20T22:10:57.768Z,2.6
2022-09-20T22:13:01.116Z,3.1
2022-09-20T22:15:01.012Z,3.2
2022-09-20T22:17:00.869Z,2.6
2022-09-20T22:19:00.756Z,3
2022-09-20T22:21:00.514Z,2.9
2022-09-20T22:23:00.434Z,2.7
2022-09-20T22:29:03.435Z,2.6
2022-09-20T22:31:03.355Z,3
2022-09-20T22:32:04.904Z,3
2022-09-20T22:34:04.767Z,3.1
2022-09-20T22:36:04.677Z,3.1
2022-09-20T22:38:04.534Z,2.7
2022-09-20T22:40:07.717Z,3.5
2022-09-20T22:44:07.459Z,3.1
2022-09-20T22:46:07.393Z,2.9
2022-09-20T22:48:07.224Z,2.8
2022-09-20T22:50:07.084Z,3.2
2022-09-20T22:54:10.392Z,3.1
2022-09-20T22:56:10.156Z,3.1
2022-09-20T22:58:10.018Z,3.3
2022-09-20T23:02:09.759Z,3
2022-09-20T23:04:09.920Z,3.1
2022-09-20T23:06:09.640Z,3.5
2022-09-20T23:08:12.723Z,2.8
2022-09-20T23:10:12.597Z,3.5
2022-09-20T23:12:12.464Z,3
2022-09-20T23:14:12.251Z,3.6
2022-09-20T23:16:12.187Z,3.4
2022-09-20T23:18:11.897Z,2.9
2022-09-20T23:20:11.768Z,2.6
2022-09-20T23:22:15.031Z,3.5
2022-09-20T23:24:14.823Z,3
2022-09-20T23:26:14.808Z,3.2
2022-09-20T23:27:16.340Z,3.6
2022-09-20T23:29:16.116Z,3.5
2022-09-20T23:31:15.965Z,3.1
2022-09-20T23:33:15.778Z,3.5
2022-09-20T23:37:18.993Z,3.5
2022-09-20T23:39:18.866Z,3.1
2022-09-20T23:41:18.758Z,3.2
2022-09-20T23:43:18.587Z,3.2
2022-09-20T23:45:18.372Z,3.1
2022-09-20T23:47:18.225Z,3.5
2022-09-20T23:49:21.497Z,3.2
2022-09-20T23:51:21.343Z,3.2
2022-09-20T23:53:21.128Z,2.8
2022-09-20T23:55:20.919Z,3.4
2022-09-20T23:57:20.787Z,3.2
2022-09-20T23:59:20.635Z,3.2
